Hauptseite
METAR-TAF:

METAR-TAF

Flughäfen :

Flughafen Derry

Derry, Nordirland

Breite: 55-03N, Länge: 007-09W, Höhe: 9 m

Beobachtung

Neuester Wetterbericht von vor 8 Stunden und 5 Minuten, um 19:50 UTC
Wind 17 kt aus West/Südwest
Temperatur 11°C
Luftfeuchtigkeit 82%
Luftdruck 1035 hPa
Sichtweite 10 km oder mehr
Leicht bewölkt in der Höhe von 2400 ft

METAR: EGAE 221950Z 25017KT 9999 FEW024 11/08 Q1035

Zeit: 04:55 (03:55 UTC)

Prognose

Neuester Wetterbericht von vor 10 Stunden und 57 Minuten, um 16:58 UTC
Gültige Prognose vom 22 um 18 UTC bis 23 um 03 UTC
Wind 14 kt aus West/Südwest
Sichtweite 10 km oder mehr
Aufgelockert bewölkt in der Höhe von 2400 ft
Zeitweise
vom 22 um 18 UTC bis 23 um 03 UTC
Wind 17 kt aus West, Böen bis zu 27 kt

TAF: EGAE 221658Z 2218/2303 25014KT 9999 SCT024 TEMPO 2218/2303 26017G27KT

Wetterbeobachtungen und Prognosen von mehr als 4000 Flughäfen (METAR und TAF Bericht).

Die verfügbaren Stationen werden durch gelbe und rote Markierungen auf der Karte dargestellt.

Führen Sie die Maus auf sie, um den Namen der Station zu sehen.

Darauf klicken, um die Beobachtung von Wetterbeobachtungen und Prognosen zu sehen.

Um die Karte zu ändern : klicken Sie auf den grünen Tasten mit einem schwarzen Kreuz Zum Vergrößern, auf den grünen Button mit einem Gedankenstrich zu verkleinern, oder auf die grünen Pfeile für benachbarte Karten.


METAR-TAF: